Meiyo Maru — JD2339 — position and weather

sailwx.info

Track history (hours):
 
Tides and Currents Weather Stations Pressure Air Temp Water Temp Dewpoint Dewpoint Depression Visibility Wind Speed Wind Dir Waves Ship Positions

Meiyo Maru

Last reported at 2017-Dec-16 01:01 UTC. Time now 2017-Dec-16 01:21 UTC.
Position N 34°39' E 135°26'.

Length 40 m; draft 4 m.

Type: Tug. MMSI: 432579000.

Date/timePositionNaut miles runAvg speedWind from/ knotsBaromVisibWave heightAir tempDewpointWater temp
2017-Dec-16 01:01N 34°39' E 135°26'0 0.0
2017-Dec-16 00:31N 34°39' E 135°26'0 0.0
2017-Dec-16 00:00N 34°39' E 135°26'0 0.0
2017-Dec-15 23:30N 34°39' E 135°26'0 0.0
2017-Dec-15 23:00N 34°39' E 135°26'0 0.0
2017-Dec-15 22:30N 34°39' E 135°26'0 0.0
2017-Dec-15 22:00N 34°39' E 135°26'0 0.0
2017-Dec-15 21:30N 34°39' E 135°26'0 0.0
2017-Dec-15 21:01N 34°39' E 135°26'0 0.0
2017-Dec-15 20:30N 34°39' E 135°26'0 0.0
2017-Dec-15 20:00N 34°39' E 135°26'0 0.0
2017-Dec-15 19:31N 34°39' E 135°26'0 0.0
2017-Dec-15 19:00N 34°39' E 135°26'0 0.0
2017-Dec-15 18:30N 34°39' E 135°26'0 0.0
2017-Dec-15 18:00N 34°39' E 135°26'0 0.0
2017-Dec-15 17:30N 34°39' E 135°26'0 0.0
2017-Dec-15 17:01N 34°39' E 135°26'0 0.0
2017-Dec-15 16:30N 34°39' E 135°26'0 0.0
2017-Dec-15 16:00N 34°39' E 135°26'0 0.0
2017-Dec-15 15:31N 34°39' E 135°26'0 0.0
2017-Dec-15 15:01N 34°39' E 135°26'0 0.0
2017-Dec-15 14:31N 34°39' E 135°26'0 0.0
2017-Dec-15 14:00N 34°39' E 135°26'0 0.0
2017-Dec-15 13:31N 34°39' E 135°26'0 0.0
2017-Dec-15 13:00N 34°39' E 135°26'0 0.0
2017-Dec-15 12:31N 34°39' E 135°26'0 0.0
2017-Dec-15 12:00N 34°39' E 135°26'0 0.0
2017-Dec-15 11:31N 34°39' E 135°26'0 0.0
2017-Dec-15 11:00N 34°39' E 135°26'0 0.0
2017-Dec-15 10:30N 34°39' E 135°26'0 0.0
2017-Dec-15 10:01N 34°39' E 135°26'0 0.0
2017-Dec-15 09:31N 34°39' E 135°26'0 0.0
2017-Dec-15 09:01N 34°39' E 135°26'2 3.2
2017-Dec-15 08:31N 34°39' E 135°24'612.2
2017-Dec-15 08:01N 34°41' E 135°17'2 3.3
2017-Dec-15 07:31N 34°40' E 135°15'3 5.6
2017-Dec-15 07:01N 34°38' E 135°17'3 6.1
2017-Dec-15 06:31N 34°35' E 135°18'3 6.7
2017-Dec-15 06:01N 34°32' E 135°19'3 6.3
2017-Dec-15 05:30N 34°29' E 135°20'2 3.0
2017-Dec-15 05:01N 34°28' E 135°21'0 0.0
2017-Dec-15 04:30N 34°28' E 135°21'0 0.0
2017-Dec-15 04:01N 34°28' E 135°21'0 0.0
2017-Dec-15 02:30N 34°28' E 135°21'0 0.0
2017-Dec-15 01:00N 34°28' E 135°21'0 0.1
2017-Dec-15 00:31N 34°28' E 135°21'3 0.4
2017-Dec-14 18:31N 34°30' E 135°20'0 0.1
2017-Dec-14 18:00N 34°30' E 135°20'0 0.0
2017-Dec-14 17:30N 34°30' E 135°20'0 0.0
2017-Dec-14 17:00N 34°30' E 135°20'0 0.0
2017-Dec-14 16:30N 34°30' E 135°20'0 0.0
2017-Dec-14 16:00N 34°30' E 135°20'0 0.0
2017-Dec-14 15:00N 34°30' E 135°20'0 0.0
2017-Dec-14 14:31N 34°30' E 135°20'0 0.0
2017-Dec-14 14:01N 34°30' E 135°20'0 0.0
2017-Dec-14 13:30N 34°30' E 135°20'0 0.0
2017-Dec-14 13:01N 34°30' E 135°20'0 0.0
2017-Dec-14 12:30N 34°30' E 135°20'0 0.0
2017-Dec-14 12:01N 34°30' E 135°20'0 0.1
2017-Dec-14 11:31N 34°30' E 135°20'0 0.1
2017-Dec-14 11:01N 34°30' E 135°20'0 0.0
2017-Dec-14 10:30N 34°30' E 135°20'0 0.0
2017-Dec-14 10:00N 34°30' E 135°20'0 0.0
2017-Dec-14 09:31N 34°30' E 135°20'0 0.0
2017-Dec-14 09:01N 34°30' E 135°20'0 0.0
2017-Dec-14 08:31N 34°30' E 135°20'2 3.3
2017-Dec-14 08:00N 34°31' E 135°19'3 6.6
2017-Dec-14 07:30N 34°34' E 135°17'3 6.8
2017-Dec-14 07:00N 34°38' E 135°17'3 5.9
2017-Dec-14 06:31N 34°40' E 135°15'2 3.3
2017-Dec-14 06:01N 34°42' E 135°15'0 0.2
2017-Dec-14 05:30N 34°42' E 135°15'0 0.0
2017-Dec-14 05:01N 34°42' E 135°15'0 0.1
2017-Dec-14 04:31N 34°42' E 135°15'0 0.1
2017-Dec-14 04:01N 34°42' E 135°15'0 0.0
2017-Dec-14 03:31N 34°42' E 135°15'0 0.0
2017-Dec-14 03:00N 34°42' E 135°15'0 0.0
2017-Dec-14 02:30N 34°42' E 135°15'0 0.0
2017-Dec-14 02:01N 34°42' E 135°15'0 0.0
2017-Dec-14 01:30N 34°42' E 135°15'0 0.1
2017-Dec-14 01:01N 34°42' E 135°15'0 0.0
2017-Dec-14 00:30N 34°42' E 135°15'0 0.0
2017-Dec-14 00:00N 34°42' E 135°15'0 0.1
2017-Dec-13 23:30N 34°42' E 135°15'0 0.0
2017-Dec-13 23:00N 34°42' E 135°15'0 0.1
2017-Dec-13 22:31N 34°42' E 135°15'1 1.7
2017-Dec-13 22:01N 34°41' E 135°15'2 4.8
2017-Dec-13 21:30N 34°39' E 135°16'2 4.3
2017-Dec-13 21:01N 34°37' E 135°17'2 4.6
2017-Dec-13 20:30N 34°35' E 135°15'2 4.3
2017-Dec-13 20:01N 34°33' E 135°14'2 3.8
2017-Dec-13 19:31N 34°34' E 135°12'2 4.1
2017-Dec-13 19:00N 34°34' E 135°10'2 4.5
2017-Dec-13 18:31N 34°34' E 135°07'3 5.2
2017-Dec-13 18:00N 34°35' E 135°04'3 5.9
2017-Dec-13 17:31N 34°37' E 135°01'3 5.8
2017-Dec-13 17:00N 34°36' E 134°58'3 5.8
2017-Dec-13 16:30N 34°37' E 134°54'3 5.7
2017-Dec-13 16:01N 34°38' E 134°51'3 5.5
2017-Dec-13 15:30N 34°40' E 134°48'3 5.4
2017-Dec-13 15:00N 34°41' E 134°46'3 5.3
2017-Dec-13 14:30N 34°42' E 134°43'3 5.3
2017-Dec-13 14:00N 34°42' E 134°39'3 5.4
2017-Dec-13 13:30N 34°43' E 134°36'3 5.5
2017-Dec-13 13:00N 34°43' E 134°33'3 5.5
2017-Dec-13 12:30N 34°43' E 134°30'3 5.5
2017-Dec-13 11:58N 34°41' E 134°27'4 5.7
2017-Dec-13 11:19N 34°39' E 134°23'15 5.8
2017-Dec-13 08:40N 34°32' E 134°07'1 6.3
2017-Dec-13 08:30N 34°32' E 134°05'  
2017-Dec-07 17:14N 34°27' E 134°28'2 5.2
2017-Dec-07 16:54N 34°28' E 134°29'2 5.3
2017-Dec-07 16:28N 34°28' E 134°32'3 5.4
2017-Dec-07 16:00N 34°29' E 134°35'3 5.5
2017-Dec-07 15:31N 34°30' E 134°38'3 5.5
2017-Dec-07 15:00N 34°31' E 134°41'3 5.6
2017-Dec-07 14:30N 34°32' E 134°44'3 5.6
2017-Dec-07 14:00N 34°34' E 134°47'3 5.7
2017-Dec-07 13:30N 34°35' E 134°51'3 5.8
2017-Dec-07 13:00N 34°36' E 134°54'3 5.4
2017-Dec-07 12:30N 34°37' E 134°57'3 5.9
2017-Dec-07 12:00N 34°38' E 135°00'3 5.8
2017-Dec-07 11:30N 34°36' E 135°03'2 3.8
2017-Dec-07 11:00N 34°36' E 135°06'2 3.6
2017-Dec-07 10:30N 34°36' E 135°08'2 3.5
2017-Dec-07 10:00N 34°36' E 135°10'2 3.4
2017-Dec-07 09:30N 34°36' E 135°12'2 3.3
2017-Dec-07 09:00N 34°35' E 135°14'2 3.4
2017-Dec-07 08:30N 34°34' E 135°15'2 3.2
2017-Dec-07 08:00N 34°33' E 135°17'1 2.3
2017-Dec-07 07:30N 34°32' E 135°18'1 2.5
2017-Dec-07 07:00N 34°31' E 135°19'1 2.5
2017-Dec-07 06:30N 34°30' E 135°20'2 3.1
2017-Dec-07 06:01N 34°29' E 135°21'1 2.9
2017-Dec-07 05:30N 34°28' E 135°21'0 0.1
2017-Dec-07 05:00N 34°28' E 135°21'0 0.1
2017-Dec-07 04:30N 34°28' E 135°21'0 0.0
2017-Dec-07 04:00N 34°28' E 135°21'0 0.0
2017-Dec-07 03:30N 34°28' E 135°21'0 0.0
2017-Dec-07 03:00N 34°28' E 135°21'0 0.0
2017-Dec-07 02:30N 34°28' E 135°21'0 0.0
2017-Dec-07 02:00N 34°28' E 135°21'0 0.1
2017-Dec-07 01:30N 34°28' E 135°22'0 0.0
2017-Dec-06 23:46N 34°28' E 135°21'0 0.2
2017-Dec-06 23:30N 34°28' E 135°21'0 0.1
2017-Dec-06 23:01N 34°27' E 135°21'0 0.0
2017-Dec-06 22:30N 34°27' E 135°21'0 0.0
2017-Dec-06 22:00N 34°27' E 135°21'0 0.0
2017-Dec-06 21:30N 34°27' E 135°21'0 0.1
2017-Dec-06 21:00N 34°27' E 135°21'  
Track history (hours):
 
Tides and Currents Weather Stations Pressure Air Temp Water Temp Dewpoint Dewpoint Depression Visibility Wind Speed Wind Dir Waves Ship Positions

Meiyo Maru

Last reported at 2017-Dec-16 01:01 UTC. Time now 2017-Dec-16 01:21 UTC.
Position N 34°39' E 135°26'.

Length 40 m; draft 4 m.

Type: Tug. MMSI: 432579000.

Date/timePositionNaut miles runAvg speedWind from/ knotsBaromVisibWave heightAir tempDewpointWater temp
2017-Dec-16 01:01N 34°39' E 135°26'0 0.0
2017-Dec-16 00:31N 34°39' E 135°26'0 0.0
2017-Dec-16 00:00N 34°39' E 135°26'0 0.0
2017-Dec-15 23:30N 34°39' E 135°26'0 0.0
2017-Dec-15 23:00N 34°39' E 135°26'0 0.0
2017-Dec-15 22:30N 34°39' E 135°26'0 0.0
2017-Dec-15 22:00N 34°39' E 135°26'0 0.0
2017-Dec-15 21:30N 34°39' E 135°26'0 0.0
2017-Dec-15 21:01N 34°39' E 135°26'0 0.0
2017-Dec-15 20:30N 34°39' E 135°26'0 0.0
2017-Dec-15 20:00N 34°39' E 135°26'0 0.0
2017-Dec-15 19:31N 34°39' E 135°26'0 0.0
2017-Dec-15 19:00N 34°39' E 135°26'0 0.0
2017-Dec-15 18:30N 34°39' E 135°26'0 0.0
2017-Dec-15 18:00N 34°39' E 135°26'0 0.0
2017-Dec-15 17:30N 34°39' E 135°26'0 0.0
2017-Dec-15 17:01N 34°39' E 135°26'0 0.0
2017-Dec-15 16:30N 34°39' E 135°26'0 0.0
2017-Dec-15 16:00N 34°39' E 135°26'0 0.0
2017-Dec-15 15:31N 34°39' E 135°26'0 0.0
2017-Dec-15 15:01N 34°39' E 135°26'0 0.0
2017-Dec-15 14:31N 34°39' E 135°26'0 0.0
2017-Dec-15 14:00N 34°39' E 135°26'0 0.0
2017-Dec-15 13:31N 34°39' E 135°26'0 0.0
2017-Dec-15 13:00N 34°39' E 135°26'0 0.0
2017-Dec-15 12:31N 34°39' E 135°26'0 0.0
2017-Dec-15 12:00N 34°39' E 135°26'0 0.0
2017-Dec-15 11:31N 34°39' E 135°26'0 0.0
2017-Dec-15 11:00N 34°39' E 135°26'0 0.0
2017-Dec-15 10:30N 34°39' E 135°26'0 0.0
2017-Dec-15 10:01N 34°39' E 135°26'0 0.0
2017-Dec-15 09:31N 34°39' E 135°26'0 0.0
2017-Dec-15 09:01N 34°39' E 135°26'2 3.2
2017-Dec-15 08:31N 34°39' E 135°24'612.2
2017-Dec-15 08:01N 34°41' E 135°17'2 3.3
2017-Dec-15 07:31N 34°40' E 135°15'3 5.6
2017-Dec-15 07:01N 34°38' E 135°17'3 6.1
2017-Dec-15 06:31N 34°35' E 135°18'3 6.7
2017-Dec-15 06:01N 34°32' E 135°19'3 6.3
2017-Dec-15 05:30N 34°29' E 135°20'2 3.0
2017-Dec-15 05:01N 34°28' E 135°21'0 0.0
2017-Dec-15 04:30N 34°28' E 135°21'0 0.0
2017-Dec-15 04:01N 34°28' E 135°21'0 0.0
2017-Dec-15 02:30N 34°28' E 135°21'0 0.0
2017-Dec-15 01:00N 34°28' E 135°21'0 0.1
2017-Dec-15 00:31N 34°28' E 135°21'3 0.4
2017-Dec-14 18:31N 34°30' E 135°20'0 0.1
2017-Dec-14 18:00N 34°30' E 135°20'0 0.0
2017-Dec-14 17:30N 34°30' E 135°20'0 0.0
2017-Dec-14 17:00N 34°30' E 135°20'0 0.0
2017-Dec-14 16:30N 34°30' E 135°20'0 0.0
2017-Dec-14 16:00N 34°30' E 135°20'0 0.0
2017-Dec-14 15:00N 34°30' E 135°20'0 0.0
2017-Dec-14 14:31N 34°30' E 135°20'0 0.0
2017-Dec-14 14:01N 34°30' E 135°20'0 0.0
2017-Dec-14 13:30N 34°30' E 135°20'0 0.0
2017-Dec-14 13:01N 34°30' E 135°20'0 0.0
2017-Dec-14 12:30N 34°30' E 135°20'0 0.0
2017-Dec-14 12:01N 34°30' E 135°20'0 0.1
2017-Dec-14 11:31N 34°30' E 135°20'0 0.1
2017-Dec-14 11:01N 34°30' E 135°20'0 0.0
2017-Dec-14 10:30N 34°30' E 135°20'0 0.0
2017-Dec-14 10:00N 34°30' E 135°20'0 0.0
2017-Dec-14 09:31N 34°30' E 135°20'0 0.0
2017-Dec-14 09:01N 34°30' E 135°20'0 0.0
2017-Dec-14 08:31N 34°30' E 135°20'2 3.3
2017-Dec-14 08:00N 34°31' E 135°19'3 6.6
2017-Dec-14 07:30N 34°34' E 135°17'3 6.8
2017-Dec-14 07:00N 34°38' E 135°17'3 5.9
2017-Dec-14 06:31N 34°40' E 135°15'2 3.3
2017-Dec-14 06:01N 34°42' E 135°15'0 0.2
2017-Dec-14 05:30N 34°42' E 135°15'0 0.0
2017-Dec-14 05:01N 34°42' E 135°15'0 0.1
2017-Dec-14 04:31N 34°42' E 135°15'0 0.1
2017-Dec-14 04:01N 34°42' E 135°15'0 0.0
2017-Dec-14 03:31N 34°42' E 135°15'0 0.0
2017-Dec-14 03:00N 34°42' E 135°15'0 0.0
2017-Dec-14 02:30N 34°42' E 135°15'0 0.0
2017-Dec-14 02:01N 34°42' E 135°15'0 0.0
2017-Dec-14 01:30N 34°42' E 135°15'0 0.1
2017-Dec-14 01:01N 34°42' E 135°15'0 0.0
2017-Dec-14 00:30N 34°42' E 135°15'0 0.0
2017-Dec-14 00:00N 34°42' E 135°15'0 0.1
2017-Dec-13 23:30N 34°42' E 135°15'0 0.0
2017-Dec-13 23:00N 34°42' E 135°15'0 0.1
2017-Dec-13 22:31N 34°42' E 135°15'1 1.7
2017-Dec-13 22:01N 34°41' E 135°15'2 4.8
2017-Dec-13 21:30N 34°39' E 135°16'2 4.3
2017-Dec-13 21:01N 34°37' E 135°17'2 4.6
2017-Dec-13 20:30N 34°35' E 135°15'2 4.3
2017-Dec-13 20:01N 34°33' E 135°14'2 3.8
2017-Dec-13 19:31N 34°34' E 135°12'2 4.1
2017-Dec-13 19:00N 34°34' E 135°10'2 4.5
2017-Dec-13 18:31N 34°34' E 135°07'3 5.2
2017-Dec-13 18:00N 34°35' E 135°04'3 5.9
2017-Dec-13 17:31N 34°37' E 135°01'3 5.8
2017-Dec-13 17:00N 34°36' E 134°58'3 5.8
2017-Dec-13 16:30N 34°37' E 134°54'3 5.7
2017-Dec-13 16:01N 34°38' E 134°51'3 5.5
2017-Dec-13 15:30N 34°40' E 134°48'3 5.4
2017-Dec-13 15:00N 34°41' E 134°46'3 5.3
2017-Dec-13 14:30N 34°42' E 134°43'3 5.3
2017-Dec-13 14:00N 34°42' E 134°39'3 5.4
2017-Dec-13 13:30N 34°43' E 134°36'3 5.5
2017-Dec-13 13:00N 34°43' E 134°33'3 5.5
2017-Dec-13 12:30N 34°43' E 134°30'3 5.5
2017-Dec-13 11:58N 34°41' E 134°27'4 5.7
2017-Dec-13 11:19N 34°39' E 134°23'15 5.8
2017-Dec-13 08:40N 34°32' E 134°07'1 6.3
2017-Dec-13 08:30N 34°32' E 134°05'  
2017-Dec-07 17:14N 34°27' E 134°28'2 5.2
2017-Dec-07 16:54N 34°28' E 134°29'2 5.3
2017-Dec-07 16:28N 34°28' E 134°32'3 5.4
2017-Dec-07 16:00N 34°29' E 134°35'3 5.5
2017-Dec-07 15:31N 34°30' E 134°38'3 5.5
2017-Dec-07 15:00N 34°31' E 134°41'3 5.6
2017-Dec-07 14:30N 34°32' E 134°44'3 5.6
2017-Dec-07 14:00N 34°34' E 134°47'3 5.7
2017-Dec-07 13:30N 34°35' E 134°51'3 5.8
2017-Dec-07 13:00N 34°36' E 134°54'3 5.4
2017-Dec-07 12:30N 34°37' E 134°57'3 5.9
2017-Dec-07 12:00N 34°38' E 135°00'3 5.8
2017-Dec-07 11:30N 34°36' E 135°03'2 3.8
2017-Dec-07 11:00N 34°36' E 135°06'2 3.6
2017-Dec-07 10:30N 34°36' E 135°08'2 3.5
2017-Dec-07 10:00N 34°36' E 135°10'2 3.4
2017-Dec-07 09:30N 34°36' E 135°12'2 3.3
2017-Dec-07 09:00N 34°35' E 135°14'2 3.4
2017-Dec-07 08:30N 34°34' E 135°15'2 3.2
2017-Dec-07 08:00N 34°33' E 135°17'1 2.3
2017-Dec-07 07:30N 34°32' E 135°18'1 2.5
2017-Dec-07 07:00N 34°31' E 135°19'1 2.5
2017-Dec-07 06:30N 34°30' E 135°20'2 3.1
2017-Dec-07 06:01N 34°29' E 135°21'1 2.9
2017-Dec-07 05:30N 34°28' E 135°21'0 0.1
2017-Dec-07 05:00N 34°28' E 135°21'0 0.1
2017-Dec-07 04:30N 34°28' E 135°21'0 0.0
2017-Dec-07 04:00N 34°28' E 135°21'0 0.0
2017-Dec-07 03:30N 34°28' E 135°21'0 0.0
2017-Dec-07 03:00N 34°28' E 135°21'0 0.0
2017-Dec-07 02:30N 34°28' E 135°21'0 0.0
2017-Dec-07 02:00N 34°28' E 135°21'0 0.1
2017-Dec-07 01:30N 34°28' E 135°22'0 0.0
2017-Dec-06 23:46N 34°28' E 135°21'0 0.2
2017-Dec-06 23:30N 34°28' E 135°21'0 0.1
2017-Dec-06 23:01N 34°27' E 135°21'0 0.0
2017-Dec-06 22:30N 34°27' E 135°21'0 0.0
2017-Dec-06 22:00N 34°27' E 135°21'0 0.0
2017-Dec-06 21:30N 34°27' E 135°21'0 0.1
2017-Dec-06 21:00N 34°27' E 135°21'  

Dump ship's entire track history